Time;durP1;ratioP1;P1;durP2;ratioP2;P2;SDS_P1;SDS_P2;PMS_P1;PMS_P2;Temp;Humidity;BMP_temperature;BMP_pressure;BME280_temperature;BME280_humidity;BME280_pressure;Samples;Min_cycle;Max_cycle;Signal;HPM_P1;HPM_P2
2023/12/14 00:30:34;;;;;;;;;;;;;;;8.48;86.34;100267.77;106320;1255;72877;-87
2023/12/14 00:33:08;;;;;;;;;;;;;;;8.60;85.29;100262.02;106389;1254;67195;-87
2023/12/14 00:35:35;;;;;;;;;;;;;;;8.56;85.42;100256.02;106369;1258;71490;-87
2023/12/14 00:38:09;;;;;;;;;;;;;;;8.48;86.05;100254.81;106467;1254;60887;-87
2023/12/14 00:40:49;;;;;;;;;;;;;;;8.39;86.90;100248.14;106450;1254;60409;-87
2023/12/14 00:43:22;;;;;;;;;;;;;;;8.42;86.87;100242.54;106389;1253;73849;-87
2023/12/14 00:45:56;;;;;;;;;;;;;;;8.41;86.83;100230.41;106379;1253;68506;-87
2023/12/14 00:48:30;;;;;;;;;;;;;;;8.50;86.40;100225.23;106534;1256;72836;-87
2023/12/14 00:51:03;;;;;;;;;;;;;;;8.55;85.82;100222.14;106600;1252;60511;-87
2023/12/14 00:53:43;;;;;;;;;;;;;;;8.66;85.03;100213.54;106523;1254;60571;-87
2023/12/14 00:56:17;;;;;;;;;;;;;;;8.58;85.20;100210.10;106308;1253;73730;-86
2023/12/14 00:58:57;;;;;;;;;;;;;;;8.61;84.95;100199.05;106277;1254;68350;-86
2023/12/14 01:01:36;;;;;;;;;;;;;;;8.61;85.24;100193.21;106285;1253;72521;-86
2023/12/14 01:04:10;;;;;;;;;;;;;;;8.61;85.15;100191.31;106475;1254;60960;-86
2023/12/14 01:06:50;;;;;;;;;;;;;;;8.64;84.71;100186.35;106500;1254;59840;-86
2023/12/14 01:09:30;;;;;;;;;;;;;;;8.67;84.53;100178.89;106401;1253;72566;-87
2023/12/14 01:12:04;;;;;;;;;;;;;;;8.79;83.86;100187.60;106574;1253;67134;-85
2023/12/14 01:14:37;;;;;;;;;;;;;;;8.78;83.36;100179.92;106333;1255;71389;-87
2023/12/14 01:17:11;;;;;;;;;;;;;;;8.70;84.09;100174.86;106239;1258;60541;-87
2023/12/14 01:19:42;;;;;;;;;;;;;;;8.66;84.61;100166.73;106370;1255;60423;-86
2023/12/14 01:22:15;;;;;;;;;;;;;;;8.87;83.29;100179.36;106420;1253;73770;-85
2023/12/14 01:24:49;;;;;;;;;;;;;;;8.87;82.70;100178.01;106404;1254;68368;-85
2023/12/14 01:27:22;;;;;;;;;;;;;;;8.80;83.31;100161.33;106471;1253;72654;-86
2023/12/14 01:29:56;;;;;;;;;;;;;;;8.82;83.28;100159.16;106489;1253;60524;-84
2023/12/14 01:32:30;;;;;;;;;;;;;;;8.66;83.95;100152.41;106641;1257;59848;-86
2023/12/14 01:34:58;;;;;;;;;;;;;;;8.63;84.56;100145.77;106519;1256;74800;-86
2023/12/14 01:37:31;;;;;;;;;;;;;;;8.70;84.39;100147.39;106541;1256;67239;-88
2023/12/14 01:40:06;;;;;;;;;;;;;;;8.73;83.67;100152.29;106340;1254;71701;-86
2023/12/14 01:42:39;;;;;;;;;;;;;;;8.78;83.53;100153.16;106372;1254;60835;-88
2023/12/14 01:45:20;;;;;;;;;;;;;;;8.86;82.95;100151.23;106498;1256;60433;-86
2023/12/14 01:47:47;;;;;;;;;;;;;;;8.85;82.83;100144.66;106551;1253;72902;-89
2023/12/14 01:50:21;;;;;;;;;;;;;;;8.84;82.99;100143.89;106444;1253;68383;-87
2023/12/14 01:52:49;;;;;;;;;;;;;;;8.92;82.28;100136.46;106412;1256;72698;-87
2023/12/14 01:55:22;;;;;;;;;;;;;;;8.85;82.63;100125.85;106414;1258;60405;-86
2023/12/14 01:57:56;;;;;;;;;;;;;;;8.93;81.91;100128.61;106492;1253;60347;-87
2023/12/14 02:00:44;;;;;;;;;;;;;;;8.96;81.34;100125.45;106543;1254;77144;-88
2023/12/14 02:03:13;;;;;;;;;;;;;;;8.99;80.91;100122.54;106111;1258;68472;-87
2023/12/14 02:05:41;;;;;;;;;;;;;;;8.89;81.47;100117.99;106282;1256;73297;-86
2023/12/14 02:08:08;;;;;;;;;;;;;;;8.87;81.76;100110.75;106367;1258;60507;-86
2023/12/14 02:10:42;;;;;;;;;;;;;;;8.91;81.13;100110.52;106388;1254;60640;-86
2023/12/14 02:13:22;;;;;;;;;;;;;;;8.84;81.64;100105.04;106423;1253;72581;-85
2023/12/14 02:15:56;;;;;;;;;;;;;;;8.85;81.49;100105.47;106437;1256;67378;-86
2023/12/14 02:18:29;;;;;;;;;;;;;;;9.12;79.98;100094.48;106336;1255;72624;-88
2023/12/14 02:21:03;;;;;;;;;;;;;;;9.25;78.52;100088.50;106312;1254;60920;-89
2023/12/14 02:23:37;;;;;;;;;;;;;;;9.23;78.20;100083.48;106455;1254;60523;-88
2023/12/14 02:26:11;;;;;;;;;;;;;;;9.07;78.84;100065.63;106334;1253;73880;-87
2023/12/14 02:28:44;;;;;;;;;;;;;;;8.91;80.12;100066.60;106503;1253;67458;-88
2023/12/14 02:31:18;;;;;;;;;;;;;;;8.64;82.03;100055.40;106328;1256;71449;-88
2023/12/14 02:33:52;;;;;;;;;;;;;;;8.65;82.37;100051.63;106619;1256;60498;-87
2023/12/14 02:36:20;;;;;;;;;;;;;;;8.62;82.50;100051.42;106563;1256;60577;-88
2023/12/14 02:38:54;;;;;;;;;;;;;;;8.59;83.11;100046.97;106337;1253;73914;-85
2023/12/14 02:41:28;;;;;;;;;;;;;;;8.40;84.18;100045.55;106425;1254;67235;-86
2023/12/14 02:44:01;;;;;;;;;;;;;;;8.19;85.98;100039.48;106355;1254;70881;-86
2023/12/14 02:46:35;;;;;;;;;;;;;;;8.01;87.79;100036.98;106467;1256;60623;-84
2023/12/14 02:49:02;;;;;;;;;;;;;;;7.89;89.10;100035.30;106402;1258;60351;-84
2023/12/14 02:51:30;;;;;;;;;;;;;;;7.94;89.07;100033.77;106340;1253;73862;-85
2023/12/14 02:54:04;;;;;;;;;;;;;;;7.86;89.48;100023.77;106589;1256;67254;-84
2023/12/14 02:56:37;;;;;;;;;;;;;;;7.74;90.57;100021.41;106321;1256;71444;-84
2023/12/14 02:59:11;;;;;;;;;;;;;;;7.71;91.13;100019.17;106336;1253;60477;-84
2023/12/14 03:01:45;;;;;;;;;;;;;;;7.78;90.90;100016.47;106306;1253;59846;-88
2023/12/14 03:04:12;;;;;;;;;;;;;;;7.78;90.68;100007.05;106390;1255;73903;-88
2023/12/14 03:06:46;;;;;;;;;;;;;;;7.80;90.72;100007.39;106372;1258;68597;-84
2023/12/14 03:09:19;;;;;;;;;;;;;;;7.95;89.88;100005.59;106344;1256;70547;-88
2023/12/14 03:11:53;;;;;;;;;;;;;;;8.06;88.74;100001.88;106293;1261;60600;-89
2023/12/14 03:14:37;;;;;;;;;;;;;;;8.06;89.03;100001.92;106574;1259;61097;-85
2023/12/14 03:17:13;;;;;;;;;;;;;;;7.99;90.23;99996.55;106268;1253;72687;-84
2023/12/14 03:19:53;;;;;;;;;;;;;;;7.92;90.72;99996.92;106292;1253;68673;-84
2023/12/14 03:22:33;;;;;;;;;;;;;;;7.97;90.63;99987.30;106373;1252;72683;-86
2023/12/14 03:25:07;;;;;;;;;;;;;;;8.03;90.24;99984.20;106458;1253;60953;-85
2023/12/14 03:27:47;;;;;;;;;;;;;;;7.95;90.42;99981.98;106414;1255;60359;-88
2023/12/14 03:30:27;;;;;;;;;;;;;;;7.83;91.62;99979.58;106298;1258;73113;-85
2023/12/14 03:33:01;;;;;;;;;;;;;;;7.82;92.03;99975.77;106520;1253;68636;-85
2023/12/14 03:35:35;;;;;;;;;;;;;;;7.80;92.42;99976.48;106385;1254;71494;-88
2023/12/14 03:38:14;;;;;;;;;;;;;;;7.84;92.28;99966.15;106353;1253;60382;-85
2023/12/14 03:40:47;;;;;;;;;;;;;;;7.79;92.49;99949.99;106366;1254;60344;-88
2023/12/14 03:43:22;;;;;;;;;;;;;;;7.94;91.60;99949.16;106481;1260;73877;-88
2023/12/14 03:45:49;;;;;;;;;;;;;;;7.93;91.09;99947.10;106440;1253;68156;-84
2023/12/14 03:48:29;;;;;;;;;;;;;;;7.91;91.53;99941.77;106265;1253;72652;-85
2023/12/14 03:50:57;;;;;;;;;;;;;;;8.00;90.66;99938.64;106237;1255;60535;-85
2023/12/14 03:53:30;;;;;;;;;;;;;;;8.06;90.37;99939.40;106366;1253;60342;-90
2023/12/14 03:55:58;;;;;;;;;;;;;;;8.11;89.74;99932.97;106356;1253;72744;-90
2023/12/14 03:58:32;;;;;;;;;;;;;;;8.18;89.14;99931.70;106338;1255;68725;-90
2023/12/14 04:01:11;;;;;;;;;;;;;;;8.24;88.59;99929.52;106353;1254;72613;-89
2023/12/14 04:03:39;;;;;;;;;;;;;;;8.18;88.69;99920.33;106762;1254;60355;-89
2023/12/14 04:06:13;;;;;;;;;;;;;;;8.21;88.80;99929.80;106468;1254;60419;-85
2023/12/14 04:08:47;;;;;;;;;;;;;;;8.18;89.05;99929.52;106336;1256;72652;-89
2023/12/14 04:11:21;;;;;;;;;;;;;;;8.15;89.21;99923.44;106466;1254;68741;-89
2023/12/14 04:13:55;;;;;;;;;;;;;;;8.21;88.64;99922.23;106397;1256;72828;-89
2023/12/14 04:16:28;;;;;;;;;;;;;;;8.30;87.83;99925.23;106406;1256;60531;-90
2023/12/14 04:19:02;;;;;;;;;;;;;;;8.32;87.87;99920.02;106512;1253;60467;-89
2023/12/14 04:21:36;;;;;;;;;;;;;;;8.36;87.31;99917.61;106679;1256;73872;-89
2023/12/14 04:24:12;;;;;;;;;;;;;;;8.35;87.09;99917.55;106328;1258;67189;-85
2023/12/14 04:26:52;;;;;;;;;;;;;;;8.29;87.64;99914.26;106375;1257;71369;-89
2023/12/14 08:31:49;;;;;;;;;;;;;;;8.27;93.64;99679.52;106470;1253;72862;-85
2023/12/14 08:34:24;;;;;;;;;;;;;;;8.27;93.77;99673.92;106449;1258;70869;-84
2023/12/14 08:36:57;;;;;;;;;;;;;;;8.41;93.05;99664.13;106486;1253;71066;-84
2023/12/14 08:39:31;;;;;;;;;;;;;;;8.48;92.50;99651.23;106527;1258;60448;-84
2023/12/14 08:42:04;;;;;;;;;;;;;;;8.46;92.90;99646.20;106356;1253;60439;-85
2023/12/14 08:44:38;;;;;;;;;;;;;;;8.45;93.24;99641.78;106355;1254;72758;-84
2023/12/14 08:47:12;;;;;;;;;;;;;;;8.50;92.91;99632.70;106440;1253;71057;-84
2023/12/14 08:49:44;;;;;;;;;;;;;;;8.52;93.07;99634.77;106356;1256;71704;-83
2023/12/14 08:52:16;;;;;;;;;;;;;;;8.44;93.87;99631.23;106372;1257;60490;-84
2023/12/14 08:54:48;;;;;;;;;;;;;;;8.52;93.59;99625.84;106320;1261;60569;-83
2023/12/14 08:57:22;;;;;;;;;;;;;;;8.55;93.55;99623.18;106392;1253;74164;-84
2023/12/14 08:59:55;;;;;;;;;;;;;;;8.58;93.54;99618.58;106511;1258;68833;-85
2023/12/14 09:02:28;;;;;;;;;;;;;;;8.66;93.38;99610.02;106337;1256;70741;-84
2023/12/14 09:05:00;;;;;;;;;;;;;;;8.48;94.89;99606.48;106383;1253;60493;-84
2023/12/14 09:07:34;;;;;;;;;;;;;;;8.58;94.78;99598.33;106523;1253;60546;-84
2023/12/14 09:10:11;;;;;;;;;;;;;;;8.69;94.42;99592.67;106562;1253;72863;-83
2023/12/14 09:12:44;;;;;;;;;;;;;;;8.73;94.46;99589.25;106276;1253;70241;-83
2023/12/14 09:15:18;;;;;;;;;;;;;;;8.74;94.83;99588.30;106486;1258;72812;-83
2023/12/14 09:17:53;;;;;;;;;;;;;;;8.73;95.55;99582.17;106764;1253;60734;-86
2023/12/14 09:20:27;;;;;;;;;;;;;;;8.76;95.99;99583.06;106357;1259;60295;-86
2023/12/14 09:23:01;;;;;;;;;;;;;;;8.88;95.87;99583.70;106386;1253;75358;-86
2023/12/14 09:25:34;;;;;;;;;;;;;;;9.03;95.30;99578.95;106212;1259;69935;-86
2023/12/14 09:28:08;;;;;;;;;;;;;;;9.14;94.77;99578.33;106262;1254;73966;-87
2023/12/14 09:30:41;;;;;;;;;;;;;;;9.35;93.59;99578.07;106353;1253;60561;-87
2023/12/14 09:33:15;;;;;;;;;;;;;;;9.48;92.33;99576.10;106320;1253;60497;-87
2023/12/14 09:35:49;;;;;;;;;;;;;;;9.41;93.33;99579.84;106269;1253;72543;-87
2023/12/14 09:38:23;;;;;;;;;;;;;;;9.48;93.67;99574.73;106552;1258;71059;-87
2023/12/14 09:40:56;;;;;;;;;;;;;;;9.65;92.75;99572.59;106410;1253;72772;-87
2023/12/14 09:43:31;;;;;;;;;;;;;;;9.70;92.37;99574.65;106470;1257;60756;-87
2023/12/14 09:46:04;;;;;;;;;;;;;;;9.99;90.87;99561.71;106461;1260;60577;-88
2023/12/14 09:48:38;;;;;;;;;;;;;;;9.97;90.89;99566.50;106329;1255;74536;-87
2023/12/14 09:51:12;;;;;;;;;;;;;;;10.02;91.23;99566.09;106768;1258;68775;-87
2023/12/14 09:53:46;;;;;;;;;;;;;;;9.84;92.48;99566.27;106463;1254;74595;-87
2023/12/14 09:56:19;;;;;;;;;;;;;;;9.55;95.53;99568.38;106503;1253;60617;-87
2023/12/14 09:58:53;;;;;;;;;;;;;;;9.54;96.77;99569.10;106565;1254;61846;-86
2023/12/14 10:01:28;;;;;;;;;;;;;;;9.51;97.66;99559.98;106383;1259;73911;-86
2023/12/14 10:04:12;;;;;;;;;;;;;;;9.61;97.42;99558.54;106401;1258;67173;-87
2023/12/14 10:06:47;;;;;;;;;;;;;;;9.76;96.75;99544.61;106253;1260;73889;-86
2023/12/14 10:09:28;;;;;;;;;;;;;;;9.70;97.63;99537.34;106324;1256;60465;-87
2023/12/14 10:12:03;;;;;;;;;;;;;;;9.71;98.34;99547.48;106393;1257;61077;-87
2023/12/14 10:14:38;;;;;;;;;;;;;;;9.93;97.34;99554.02;106385;1258;73837;-86
2023/12/14 10:17:19;;;;;;;;;;;;;;;9.91;97.07;99552.08;106611;1256;69767;-86
2023/12/14 10:19:53;;;;;;;;;;;;;;;9.88;97.32;99550.21;106302;1254;74530;-87
2023/12/14 10:22:27;;;;;;;;;;;;;;;10.04;96.48;99551.06;106271;1256;60871;-86
2023/12/14 10:25:00;;;;;;;;;;;;;;;10.13;95.44;99550.96;106535;1253;60574;-86
2023/12/14 10:27:34;;;;;;;;;;;;;;;10.13;95.63;99542.06;106373;1257;74708;-86
2023/12/14 10:30:07;;;;;;;;;;;;;;;10.19;95.19;99531.38;106297;1254;67228;-86
2023/12/14 10:32:41;;;;;;;;;;;;;;;10.19;95.29;99521.94;106200;1256;73126;-86
2023/12/14 10:35:22;;;;;;;;;;;;;;;10.24;95.39;99520.15;106352;1257;61004;-87
2023/12/14 10:38:02;;;;;;;;;;;;;;;10.37;94.62;99518.65;106384;1256;60460;-86
2023/12/14 10:40:40;;;;;;;;;;;;;;;10.25;95.42;99516.48;106354;1254;73715;-86
2023/12/14 10:43:20;;;;;;;;;;;;;;;10.33;94.95;99520.08;106342;1260;70373;-86
2023/12/14 10:46:20;;;;;;;;;;;;;;;10.29;94.97;99515.39;106289;1256;73576;-87
2023/12/14 10:49:00;;;;;;;;;;;;;;;10.31;94.82;99517.59;106558;1260;61887;-87
2023/12/14 10:51:37;;;;;;;;;;;;;;;10.38;94.54;99506.72;106180;1254;61227;-86
2023/12/14 10:54:16;;;;;;;;;;;;;;;10.28;95.22;99502.02;106303;1255;71685;-87
2023/12/14 10:56:44;;;;;;;;;;;;;;;10.36;94.82;99500.75;106556;1257;68694;-87
2023/12/14 10:59:19;;;;;;;;;;;;;;;10.38;94.57;99492.14;106319;1260;71708;-86
2023/12/14 11:01:59;;;;;;;;;;;;;;;10.50;93.97;99492.52;106340;1253;60470;-87
2023/12/14 11:04:38;;;;;;;;;;;;;;;10.59;93.16;99487.00;106400;1252;60649;-87
2023/12/14 11:07:16;;;;;;;;;;;;;;;10.60;92.92;99494.95;106347;1257;74032;-86
2023/12/14 11:09:50;;;;;;;;;;;;;;;10.73;92.54;99486.04;106418;1258;67102;-87
2023/12/14 11:12:25;;;;;;;;;;;;;;;10.69;92.71;99480.83;106328;1259;72715;-86
2023/12/14 11:15:03;;;;;;;;;;;;;;;10.46;94.23;99491.05;106376;1259;61135;-86
2023/12/14 11:17:42;;;;;;;;;;;;;;;10.41;94.86;99481.43;106527;1258;60840;-86
2023/12/14 11:20:30;;;;;;;;;;;;;;;10.44;94.70;99479.67;106343;1257;74881;-86
2023/12/14 11:23:13;;;;;;;;;;;;;;;10.53;94.14;99472.51;106362;1258;68195;-86
2023/12/14 11:25:54;;;;;;;;;;;;;;;10.48;94.32;99468.99;106251;1260;74471;-85
2023/12/14 11:28:32;;;;;;;;;;;;;;;10.55;94.28;99471.98;106078;1254;62478;-85
2023/12/14 11:31:07;;;;;;;;;;;;;;;10.46;95.08;99467.63;106458;1257;60910;-86
2023/12/14 11:33:35;;;;;;;;;;;;;;;10.68;93.53;99461.34;106700;1255;76092;-85
2023/12/14 11:36:13;;;;;;;;;;;;;;;10.75;92.90;99455.95;106370;1260;69829;-85
2023/12/14 11:38:48;;;;;;;;;;;;;;;10.85;92.40;99454.23;106399;1260;74842;-85
2023/12/14 11:41:25;;;;;;;;;;;;;;;10.90;92.45;99456.41;106363;1261;62167;-86
2023/12/14 11:43:53;;;;;;;;;;;;;;;10.77;93.50;99450.89;106386;1259;60472;-86
2023/12/14 11:46:28;;;;;;;;;;;;;;;10.76;94.17;99453.80;106416;1260;76431;-86
2023/12/14 11:49:08;;;;;;;;;;;;;;;10.75;94.23;99442.40;106682;1253;70577;-86
2023/12/14 11:51:47;;;;;;;;;;;;;;;10.64;95.17;99444.65;106410;1255;73670;-86
2023/12/14 11:54:21;;;;;;;;;;;;;;;10.66;95.35;99439.75;106524;1254;61518;-86
2023/12/14 11:56:55;;;;;;;;;;;;;;;10.73;95.21;99438.82;106506;1255;60724;-85
2023/12/14 11:59:28;;;;;;;;;;;;;;;10.71;95.28;99434.84;106510;1257;75958;-85
2023/12/14 12:02:04;;;;;;;;;;;;;;;10.70;95.72;99435.35;106463;1260;68749;-86
2023/12/14 12:04:42;;;;;;;;;;;;;;;10.77;95.31;99437.98;106483;1254;72581;-86
2023/12/14 12:07:20;;;;;;;;;;;;;;;10.82;95.59;99438.95;106587;1255;62053;-87
2023/12/14 12:09:59;;;;;;;;;;;;;;;10.80;96.10;99436.95;106452;1254;61950;-87
2023/12/14 12:12:33;;;;;;;;;;;;;;;10.98;95.65;99436.25;106663;1253;73462;-86
2023/12/14 12:15:12;;;;;;;;;;;;;;;11.10;94.87;99437.89;106535;1254;71251;-88
2023/12/14 12:17:46;;;;;;;;;;;;;;;11.16;94.70;99443.72;106724;1260;73575;-89
2023/12/14 12:20:19;;;;;;;;;;;;;;;11.26;94.34;99448.05;106396;1257;62868;-88
2023/12/14 12:22:54;;;;;;;;;;;;;;;11.37;93.85;99450.89;106496;1254;62098;-88
2023/12/14 12:25:27;;;;;;;;;;;;;;;11.59;92.66;99448.29;106615;1254;76161;-87
2023/12/14 12:28:02;;;;;;;;;;;;;;;11.47;93.71;99450.45;106316;1256;69338;-87
2023/12/14 12:30:35;;;;;;;;;;;;;;;11.59;93.00;99452.84;106427;1254;71416;-87
2023/12/14 12:33:13;;;;;;;;;;;;;;;11.50;93.56;99451.64;106405;1257;62783;-88
2023/12/14 12:35:41;;;;;;;;;;;;;;;11.60;93.62;99447.02;106309;1255;60446;-87
2023/12/14 12:38:09;;;;;;;;;;;;;;;11.62;93.88;99443.20;106312;1254;75290;-88
2023/12/14 12:40:42;;;;;;;;;;;;;;;11.69;94.11;99439.25;106342;1254;68626;-88
2023/12/14 12:43:16;;;;;;;;;;;;;;;11.87;93.27;99433.41;106474;1260;75006;-84
2023/12/14 12:45:50;;;;;;;;;;;;;;;11.94;92.65;99433.17;106399;1257;61212;-84
2023/12/14 12:48:24;;;;;;;;;;;;;;;11.84;94.04;99430.68;106359;1254;60775;-87
2023/12/14 12:51:00;;;;;;;;;;;;;;;11.90;94.10;99425.58;106364;1256;74322;-84
2023/12/14 12:53:34;;;;;;;;;;;;;;;11.98;93.72;99429.59;106525;1254;67639;-84
2023/12/14 12:56:02;;;;;;;;;;;;;;;12.01;93.82;99429.60;106403;1257;73673;-87
2023/12/14 12:58:33;;;;;;;;;;;;;;;12.09;93.32;99431.80;106421;1255;62682;-86
2023/12/14 13:01:11;;;;;;;;;;;;;;;12.15;93.47;99428.33;106236;1254;60830;-86
2023/12/14 13:03:42;;;;;;;;;;;;;;;12.33;92.74;99428.54;106589;1258;74978;-86
2023/12/14 13:06:22;;;;;;;;;;;;;;;12.46;92.01;99430.52;106257;1260;69476;-86
2023/12/14 13:09:00;;;;;;;;;;;;;;;12.54;91.61;99431.29;106421;1257;76218;-86
2023/12/14 13:11:38;;;;;;;;;;;;;;;12.63;91.02;99426.68;106506;1254;61412;-85
2023/12/14 13:14:12;;;;;;;;;;;;;;;12.77;90.23;99427.42;106634;1254;61629;-86
2023/12/14 13:16:47;;;;;;;;;;;;;;;12.68;90.78;99424.75;106824;1254;74676;-86
2023/12/14 13:19:23;;;;;;;;;;;;;;;12.27;94.22;99435.38;106379;1253;70999;-86
2023/12/14 13:21:58;;;;;;;;;;;;;;;12.29;94.76;99438.41;106430;1253;73791;-86
2023/12/14 13:24:31;;;;;;;;;;;;;;;12.41;93.60;99435.59;106957;1254;62475;-85
2023/12/14 13:27:05;;;;;;;;;;;;;;;12.37;93.65;99431.39;106550;1257;60875;-86
2023/12/14 13:29:39;;;;;;;;;;;;;;;12.50;92.88;99431.46;106286;1255;74668;-86
2023/12/14 13:32:07;;;;;;;;;;;;;;;12.52;93.15;99429.19;106381;1253;70738;-86
2023/12/14 13:34:41;;;;;;;;;;;;;;;12.46;93.68;99423.08;106294;1257;75124;-87
2023/12/14 13:37:13;;;;;;;;;;;;;;;12.45;93.66;99427.00;106058;1255;62157;-86
2023/12/14 13:39:52;;;;;;;;;;;;;;;12.50;93.79;99434.65;106308;1254;60669;-86
2023/12/14 13:42:30;;;;;;;;;;;;;;;12.49;93.78;99437.91;106525;1257;74816;-86
2023/12/14 13:45:09;;;;;;;;;;;;;;;12.58;93.34;99437.02;106407;1257;71528;-86
2023/12/14 13:47:47;;;;;;;;;;;;;;;12.55;93.32;99442.46;106362;1254;74691;-86
2023/12/14 13:50:21;;;;;;;;;;;;;;;12.54;93.56;99445.73;106426;1254;62484;-87
2023/12/14 13:52:55;;;;;;;;;;;;;;;12.65;92.95;99441.52;106432;1254;61002;-84
2023/12/14 13:55:29;;;;;;;;;;;;;;;12.72;92.40;99441.31;106344;1254;75942;-85
2023/12/14 13:58:03;;;;;;;;;;;;;;;12.56;93.06;99444.20;106450;1254;70669;-85
2023/12/14 14:00:36;;;;;;;;;;;;;;;12.65;93.32;99440.80;106593;1254;72683;-85
2023/12/14 14:03:10;;;;;;;;;;;;;;;12.71;93.27;99436.79;106348;1254;61123;-85
2023/12/14 14:05:44;;;;;;;;;;;;;;;12.76;92.65;99434.84;106390;1257;60738;-85
2023/12/14 14:08:12;;;;;;;;;;;;;;;13.12;90.56;99441.36;106299;1254;75216;-85
2023/12/14 14:10:45;;;;;;;;;;;;;;;13.40;87.61;99451.31;106373;1254;71590;-85
2023/12/14 14:13:22;;;;;;;;;;;;;;;13.18;89.33;99452.02;106280;1257;73801;-86
2023/12/14 14:15:56;;;;;;;;;;;;;;;13.13;89.69;99443.73;106378;1257;63753;-85
2023/12/14 14:18:30;;;;;;;;;;;;;;;12.98;91.03;99449.50;106551;1254;60600;-85
2023/12/14 14:21:07;;;;;;;;;;;;;;;12.96;91.46;99447.52;106269;1254;75817;-85
2023/12/14 14:23:41;;;;;;;;;;;;;;;12.81;92.86;99453.33;106289;1254;69882;-86
2023/12/14 14:26:15;;;;;;;;;;;;;;;12.52;95.44;99456.29;106432;1253;73786;-85
2023/12/14 14:28:49;;;;;;;;;;;;;;;12.40;97.55;99453.50;106394;1254;61153;-86
2023/12/14 14:31:23;;;;;;;;;;;;;;;12.29;98.94;99451.55;106499;1254;62056;-86
2023/12/14 14:33:57;;;;;;;;;;;;;;;12.21;100.00;99465.56;106282;1254;74890;-86
2023/12/14 14:36:30;;;;;;;;;;;;;;;12.29;99.98;99470.11;106405;1253;68985;-86
2023/12/14 14:38:58;;;;;;;;;;;;;;;12.33;99.92;99470.52;106130;1260;74658;-86
2023/12/14 14:41:26;;;;;;;;;;;;;;;12.35;99.88;99472.47;106361;1255;61102;-86
2023/12/14 14:44:01;;;;;;;;;;;;;;;12.47;99.45;99475.94;106513;1253;62338;-86
2023/12/14 14:46:34;;;;;;;;;;;;;;;12.69;97.63;99477.73;106308;1254;75256;-86
2023/12/14 14:49:08;;;;;;;;;;;;;;;12.66;97.76;99482.83;106434;1256;69302;-86
2023/12/14 14:51:42;;;;;;;;;;;;;;;12.54;98.56;99488.36;106486;1255;74051;-86
2023/12/14 14:54:17;;;;;;;;;;;;;;;12.47;98.92;99480.71;106369;1254;62674;-86
2023/12/14 14:56:51;;;;;;;;;;;;;;;12.29;99.83;99489.14;106317;1254;61438;-86
2023/12/14 14:59:24;;;;;;;;;;;;;;;12.37;99.49;99489.17;106211;1254;76518;-87
2023/12/14 15:02:01;;;;;;;;;;;;;;;12.35;99.80;99485.90;106274;1254;69944;-86
2023/12/14 15:04:34;;;;;;;;;;;;;;;12.35;99.99;99474.19;106298;1256;74738;-86
2023/12/14 15:07:08;;;;;;;;;;;;;;;12.46;99.74;99476.90;106294;1254;62817;-87
2023/12/14 15:09:36;;;;;;;;;;;;;;;12.50;99.43;99467.58;106282;1253;60682;-86
2023/12/14 15:12:07;;;;;;;;;;;;;;;12.64;98.53;99465.41;106232;1254;74683;-87
2023/12/14 15:14:45;;;;;;;;;;;;;;;12.71;97.97;99475.39;106135;1260;70082;-86
2023/12/14 15:17:20;;;;;;;;;;;;;;;12.74;97.25;99472.66;106389;1257;73764;-87
2023/12/14 15:19:54;;;;;;;;;;;;;;;12.83;96.65;99470.73;106318;1254;60440;-86
2023/12/14 15:22:28;;;;;;;;;;;;;;;12.86;96.19;99474.58;106195;1254;62161;-87
2023/12/14 15:25:04;;;;;;;;;;;;;;;12.75;96.66;99488.89;106409;1253;74664;-86
2023/12/14 15:27:37;;;;;;;;;;;;;;;12.70;97.01;99483.48;106342;1258;69203;-86
2023/12/14 15:30:12;;;;;;;;;;;;;;;12.90;95.87;99481.10;106518;1254;72704;-87
2023/12/14 15:32:45;;;;;;;;;;;;;;;13.01;94.97;99484.05;106492;1253;60764;-84
2023/12/14 15:35:20;;;;;;;;;;;;;;;13.09;93.78;99487.56;106411;1257;60325;-84
2023/12/14 15:37:54;;;;;;;;;;;;;;;13.09;93.66;99484.55;106380;1255;75850;-84
2023/12/14 15:40:21;;;;;;;;;;;;;;;13.01;94.60;99489.02;106358;1254;70059;-84
2023/12/14 15:42:51;;;;;;;;;;;;;;;13.04;94.32;99491.62;106288;1257;74735;-84
2023/12/14 15:45:32;;;;;;;;;;;;;;;13.13;93.51;99493.33;106272;1259;62774;-84
2023/12/14 15:48:06;;;;;;;;;;;;;;;13.02;93.93;99499.74;106364;1254;61090;-84
2023/12/14 15:50:40;;;;;;;;;;;;;;;12.92;94.82;99492.73;106399;1253;76197;-84
2023/12/14 15:53:14;;;;;;;;;;;;;;;12.59;97.12;99502.95;106264;1254;69976;-84
2023/12/14 15:55:48;;;;;;;;;;;;;;;12.69;96.72;99499.89;106264;1255;74720;-84
2023/12/14 15:58:22;;;;;;;;;;;;;;;12.64;96.98;99513.85;106308;1253;61310;-84
2023/12/14 16:00:56;;;;;;;;;;;;;;;12.65;97.08;99525.10;106346;1254;60944;-84
2023/12/14 16:03:30;;;;;;;;;;;;;;;12.71;96.57;99528.81;106259;1256;75847;-84
2023/12/14 16:06:04;;;;;;;;;;;;;;;12.76;96.25;99537.52;106362;1254;71013;-84
2023/12/14 16:08:39;;;;;;;;;;;;;;;12.79;95.85;99544.55;106301;1253;75051;-84
2023/12/14 16:11:07;;;;;;;;;;;;;;;13.10;93.73;99550.77;106388;1259;60439;-84
2023/12/14 16:13:34;;;;;;;;;;;;;;;13.11;93.02;99552.07;106344;1253;60747;-84
2023/12/14 16:16:12;;;;;;;;;;;;;;;13.09;92.82;99545.10;106451;1253;73726;-84
2023/12/14 16:18:50;;;;;;;;;;;;;;;13.26;91.60;99527.57;106421;1257;70969;-83
2023/12/14 16:21:29;;;;;;;;;;;;;;;13.28;91.28;99515.43;106792;1253;75124;-84
2023/12/14 16:24:06;;;;;;;;;;;;;;;13.46;89.94;99521.68;106599;1254;61632;-83
2023/12/14 16:26:41;;;;;;;;;;;;;;;13.45;89.07;99529.10;106290;1253;62423;-83
2023/12/14 16:29:24;;;;;;;;;;;;;;;13.32;90.56;99530.38;106473;1253;73705;-83
2023/12/14 16:32:04;;;;;;;;;;;;;;;13.24;90.96;99534.31;106740;1253;70865;-83
2023/12/14 16:34:44;;;;;;;;;;;;;;;13.27;90.94;99544.33;106378;1254;75030;-83
2023/12/14 16:37:26;;;;;;;;;;;;;;;13.28;90.39;99555.11;106472;1254;64916;-82
2023/12/14 16:40:06;;;;;;;;;;;;;;;13.11;92.19;99550.27;106511;1254;62285;-82
2023/12/14 16:42:45;;;;;;;;;;;;;;;13.20;92.02;99558.45;106471;1253;76035;-82
2023/12/14 16:45:25;;;;;;;;;;;;;;;13.21;91.94;99569.02;106438;1253;69776;-82
2023/12/14 16:48:05;;;;;;;;;;;;;;;12.75;95.24;99568.20;106422;1256;73506;-82
2023/12/14 16:50:46;;;;;;;;;;;;;;;12.56;97.22;99569.73;106282;1254;63880;-82
2023/12/14 16:53:26;;;;;;;;;;;;;;;12.44;98.31;99572.08;106359;1257;61253;-82
2023/12/14 16:56:08;;;;;;;;;;;;;;;12.42;98.19;99573.07;106327;1254;76247;-82
2023/12/14 16:58:50;;;;;;;;;;;;;;;12.28;99.44;99581.90;106327;1253;71027;-83
2023/12/14 17:01:30;;;;;;;;;;;;;;;12.27;98.86;99584.52;106489;1255;73779;-82
2023/12/14 17:04:13;;;;;;;;;;;;;;;12.29;98.29;99588.56;106377;1254;62401;-82
2023/12/14 17:06:52;;;;;;;;;;;;;;;12.25;98.00;99596.32;106558;1255;60884;-82
2023/12/14 17:09:32;;;;;;;;;;;;;;;12.17;98.06;99601.23;106299;1253;74950;-82
2023/12/14 17:12:12;;;;;;;;;;;;;;;12.21;97.25;99598.13;106390;1253;70465;-83
2023/12/14 17:14:51;;;;;;;;;;;;;;;12.39;94.65;99600.96;106337;1258;75214;-83
2023/12/14 17:17:34;;;;;;;;;;;;;;;12.61;92.09;99600.58;106329;1253;61533;-83
2023/12/14 17:20:14;;;;;;;;;;;;;;;12.62;90.29;99602.20;106333;1254;60900;-83
2023/12/14 17:22:53;;;;;;;;;;;;;;;12.48;90.50;99605.30;106266;1258;76102;-83
2023/12/14 17:25:33;;;;;;;;;;;;;;;12.32;90.69;99609.27;106498;1254;69760;-83
2023/12/14 17:28:13;;;;;;;;;;;;;;;12.33;90.04;99623.09;106249;1255;72371;-83
2023/12/14 17:30:53;;;;;;;;;;;;;;;12.33;89.06;99635.14;106411;1253;61535;-83
2023/12/14 17:33:33;;;;;;;;;;;;;;;12.09;89.73;99652.20;106508;1253;61256;-83
2023/12/14 17:36:13;;;;;;;;;;;;;;;11.92;90.71;99657.27;106465;1253;72973;-83
2023/12/14 17:38:53;;;;;;;;;;;;;;;11.99;89.19;99670.05;106508;1254;71437;-84
2023/12/14 17:41:33;;;;;;;;;;;;;;;11.92;88.50;99673.31;106351;1254;74990;-84
2023/12/14 17:44:13;;;;;;;;;;;;;;;11.54;89.93;99679.23;106298;1256;62607;-84
2023/12/14 17:46:53;;;;;;;;;;;;;;;11.54;89.72;99686.29;106458;1255;61904;-86
2023/12/14 17:49:33;;;;;;;;;;;;;;;11.37;90.16;99683.39;106292;1257;76712;-86